createdAt,value
2019-02-12T00:00:28.721Z,99.60
2019-02-12T00:02:58.109Z,99.50
2019-02-12T00:05:27.401Z,99.50
2019-02-12T00:07:57.070Z,99.20
2019-02-12T00:10:26.442Z,99.10
2019-02-12T00:12:55.854Z,99.10
2019-02-12T00:15:25.226Z,99.20
2019-02-12T00:17:54.593Z,99.10
2019-02-12T00:20:23.986Z,99.40
2019-02-12T00:22:53.353Z,99.30
2019-02-12T00:25:22.749Z,99.40
2019-02-12T00:27:52.464Z,99.40
2019-02-12T00:30:21.869Z,99.50
2019-02-12T00:32:51.245Z,99.50
2019-02-12T00:35:20.641Z,99.70
2019-02-12T00:37:50.006Z,99.80
2019-02-12T00:40:19.724Z,99.90
2019-02-12T00:42:49.419Z,99.90
2019-02-12T00:45:18.818Z,99.90
2019-02-12T00:47:48.205Z,99.90
2019-02-12T00:50:17.605Z,99.90
2019-02-12T00:52:47.315Z,99.90
2019-02-12T00:55:16.719Z,99.90
2019-02-12T00:57:46.079Z,99.90
2019-02-12T01:00:15.478Z,99.90
2019-02-12T01:02:44.958Z,99.90
2019-02-12T01:05:14.725Z,99.90
2019-02-12T01:07:44.117Z,99.80
2019-02-12T01:10:13.490Z,99.80
2019-02-12T01:12:42.902Z,99.70
2019-02-12T01:15:13.161Z,99.40
2019-02-12T01:17:42.641Z,99.30
2019-02-12T01:20:13.132Z,99.20
2019-02-12T01:22:42.638Z,99.20
2019-02-12T01:25:12.479Z,99.20
2019-02-12T01:27:42.013Z,99.40
2019-02-12T01:30:16.925Z,99.50
2019-02-12T01:32:46.465Z,99.60
2019-02-12T01:35:15.871Z,99.60
2019-02-12T01:37:45.577Z,99.60
2019-02-12T01:40:15.245Z,99.60
2019-02-12T01:42:44.636Z,99.80
2019-02-12T01:45:14.362Z,99.80
2019-02-12T01:47:43.754Z,99.90
2019-02-12T01:50:14.275Z,99.90
2019-02-12T01:52:43.830Z,99.90
2019-02-12T01:55:13.485Z,99.90
2019-02-12T01:57:43.238Z,99.90
2019-02-12T02:00:14.477Z,99.70
2019-02-12T02:02:43.966Z,99.60
2019-02-12T02:05:14.105Z,99.70
2019-02-12T02:07:44.242Z,99.80
2019-02-12T02:10:16.218Z,99.90
2019-02-12T02:12:46.424Z,99.90
2019-02-12T02:15:16.668Z,99.90
2019-02-12T02:17:47.614Z,99.90
2019-02-12T02:20:17.868Z,99.90
2019-02-12T02:22:47.645Z,99.90
2019-02-12T02:25:17.447Z,99.90
2019-02-12T02:27:47.093Z,99.90
2019-02-12T02:30:16.962Z,99.90
2019-02-12T02:32:47.297Z,99.90
2019-02-12T02:35:17.281Z,99.90
2019-02-12T02:37:47.004Z,99.90
2019-02-12T02:40:16.731Z,99.90
2019-02-12T02:42:46.112Z,99.90
2019-02-12T02:45:15.787Z,99.90
2019-02-12T02:47:45.521Z,99.90
2019-02-12T02:50:15.338Z,99.70
2019-02-12T02:52:44.984Z,99.60
2019-02-12T02:55:14.613Z,99.50
2019-02-12T02:57:44.054Z,99.70
2019-02-12T03:00:13.626Z,99.40
2019-02-12T03:02:43.305Z,99.40
2019-02-12T03:05:12.701Z,99.40
2019-02-12T03:07:42.365Z,99.40
2019-02-12T03:10:11.757Z,99.30
2019-02-12T03:12:41.158Z,99.10
2019-02-12T03:15:10.952Z,99.20
2019-02-12T03:17:40.289Z,99.30
2019-02-12T03:20:10.778Z,99.40
2019-02-12T03:22:40.192Z,99.40
2019-02-12T03:25:10.027Z,99.40
2019-02-12T03:27:39.477Z,99.50
2019-02-12T03:30:09.978Z,99.30
2019-02-12T03:32:39.647Z,99.40
2019-02-12T03:35:09.390Z,99.30
2019-02-12T03:37:38.787Z,99.30
2019-02-12T03:40:09.421Z,99.30
2019-02-12T03:42:38.728Z,99.30
2019-02-12T03:45:08.869Z,99.20
2019-02-12T03:47:38.274Z,99.20
2019-02-12T03:50:08.225Z,99.20
2019-02-12T03:52:37.913Z,99.10
2019-02-12T03:55:08.462Z,99.00
2019-02-12T03:57:38.205Z,98.90
2019-02-12T04:00:09.965Z,98.70
2019-02-12T04:02:55.902Z,98.70
2019-02-12T04:05:25.385Z,98.60
2019-02-12T04:07:54.819Z,98.40
2019-02-12T04:10:24.482Z,98.50
2019-02-12T04:12:53.900Z,98.30
2019-02-12T04:15:23.262Z,98.20
2019-02-12T04:17:52.636Z,98.30
2019-02-12T04:20:22.021Z,98.20
2019-02-12T04:22:51.393Z,98.40
2019-02-12T04:25:20.790Z,98.20
2019-02-12T04:27:50.850Z,97.90
2019-02-12T04:30:20.235Z,98.00
2019-02-12T04:32:49.605Z,97.90
2019-02-12T04:35:19.002Z,97.80
2019-02-12T04:37:48.768Z,97.90
2019-02-12T04:40:18.134Z,97.80
2019-02-12T04:42:47.533Z,97.80
2019-02-12T04:45:16.898Z,97.70
2019-02-12T04:47:46.328Z,97.70
2019-02-12T04:50:15.786Z,97.80
2019-02-12T04:52:45.704Z,98.00
2019-02-12T04:55:15.486Z,98.10
2019-02-12T04:57:44.895Z,98.20
2019-02-12T05:00:15.496Z,98.40
2019-02-12T05:02:45.066Z,98.10
2019-02-12T05:05:14.554Z,98.20
2019-02-12T05:07:43.918Z,98.20
2019-02-12T05:10:15.017Z,98.10
2019-02-12T05:12:44.395Z,98.10
2019-02-12T05:15:14.054Z,97.90
2019-02-12T05:17:43.424Z,97.70
2019-02-12T05:20:13.312Z,97.60
2019-02-12T05:22:43.758Z,97.70
2019-02-12T05:25:14.004Z,97.70
2019-02-12T05:27:43.415Z,97.80
2019-02-12T05:30:12.961Z,97.80
2019-02-12T05:32:42.376Z,97.60
2019-02-12T05:35:11.741Z,97.70
2019-02-12T05:37:41.140Z,97.10
2019-02-12T05:40:10.737Z,97.10
2019-02-12T05:42:40.505Z,97.10
2019-02-12T05:45:10.654Z,97.10
2019-02-12T05:47:40.084Z,97.10
2019-02-12T05:50:11.373Z,97.50
2019-02-12T05:52:40.811Z,97.10
2019-02-12T05:55:10.705Z,97.30
2019-02-12T05:57:40.063Z,97.30
2019-02-12T06:00:12.131Z,97.40
2019-02-12T06:02:41.839Z,97.70
2019-02-12T06:05:11.992Z,97.90
2019-02-12T06:07:41.371Z,97.60
2019-02-12T06:10:11.243Z,97.90
2019-02-12T06:12:40.606Z,97.80
2019-02-12T06:15:10.045Z,97.70
2019-02-12T06:17:39.421Z,97.60
2019-02-12T06:20:08.832Z,97.70
2019-02-12T06:22:38.198Z,97.50
2019-02-12T06:25:08.398Z,97.50
2019-02-12T06:27:37.908Z,97.50
2019-02-12T06:30:07.697Z,97.50
2019-02-12T06:32:37.096Z,97.40
2019-02-12T06:35:06.670Z,97.60
2019-02-12T06:37:36.074Z,97.60
2019-02-12T06:40:05.990Z,97.60
2019-02-12T06:42:35.412Z,97.60
2019-02-12T06:45:04.987Z,97.70
2019-02-12T06:47:34.422Z,97.70
2019-02-12T06:50:03.973Z,97.50
2019-02-12T06:52:33.702Z,97.40
2019-02-12T06:55:03.134Z,97.40
2019-02-12T06:57:32.783Z,97.20
2019-02-12T07:00:02.476Z,97.00
2019-02-12T07:03:07.950Z,97.00
2019-02-12T07:05:37.353Z,97.00
2019-02-12T07:08:49.870Z,96.40
2019-02-12T07:11:46.518Z,96.40
2019-02-12T07:14:44.049Z,96.30
2019-02-12T07:17:53.877Z,96.10
2019-02-12T07:20:46.285Z,95.90
2019-02-12T07:23:51.105Z,95.50
2019-02-12T07:27:10.619Z,95.90
2019-02-12T07:30:12.026Z,95.80
2019-02-12T07:33:13.416Z,95.70
2019-02-12T07:36:07.413Z,96.00
2019-02-12T07:39:06.736Z,96.00
2019-02-12T07:41:59.327Z,96.30
2019-02-12T07:45:04.184Z,96.20
2019-02-12T07:48:09.297Z,96.40
2019-02-12T07:51:21.439Z,96.10
2019-02-12T07:54:17.874Z,96.10
2019-02-12T07:57:58.968Z,96.00
2019-02-12T08:01:07.413Z,96.00
2019-02-12T08:04:16.488Z,95.60
2019-02-12T08:07:14.645Z,95.70
2019-02-12T08:10:45.945Z,95.20
2019-02-12T08:13:40.510Z,94.80
2019-02-12T08:16:38.548Z,94.20
2019-02-12T08:19:33.571Z,94.20
2019-02-12T08:22:47.034Z,93.90
2019-02-12T08:25:55.944Z,92.70
2019-02-12T08:28:56.416Z,92.70
2019-02-12T08:32:03.943Z,91.90
2019-02-12T08:35:28.211Z,90.80
2019-02-12T08:38:53.649Z,90.50
2019-02-12T08:42:09.715Z,89.70
2019-02-12T08:45:33.605Z,90.00
2019-02-12T08:48:31.647Z,89.60
2019-02-12T08:51:41.653Z,90.00
2019-02-12T08:54:44.867Z,88.10
2019-02-12T08:57:57.793Z,89.50
2019-02-12T09:00:52.389Z,87.80
2019-02-12T09:04:01.111Z,88.90
2019-02-12T09:07:10.302Z,88.10
2019-02-12T09:10:05.652Z,88.20
2019-02-12T09:13:20.727Z,88.30
2019-02-12T09:16:26.635Z,88.40
2019-02-12T09:19:19.688Z,87.20
2019-02-12T09:22:33.535Z,87.70
2019-02-12T09:25:39.778Z,86.50
2019-02-12T09:29:08.359Z,85.60
2019-02-12T09:32:23.404Z,84.70
2019-02-12T09:35:15.977Z,85.00
2019-02-12T09:38:47.282Z,84.20
2019-02-12T09:41:53.616Z,82.80
2019-02-12T09:45:05.644Z,82.50
2019-02-12T09:48:11.634Z,81.90
2019-02-12T09:51:04.518Z,81.30
2019-02-12T09:54:11.647Z,80.10
2019-02-12T09:57:30.730Z,79.40
2019-02-12T10:00:14.793Z,78.50
2019-02-12T10:03:16.428Z,77.80
2019-02-12T10:06:24.332Z,76.50
2019-02-12T10:09:23.744Z,76.40
2019-02-12T10:12:32.960Z,75.80
2019-02-12T10:15:34.060Z,76.10
2019-02-12T10:18:43.830Z,75.00
2019-02-12T10:21:35.710Z,75.30
2019-02-12T10:24:43.065Z,74.80
2019-02-12T10:28:02.824Z,74.50
2019-02-12T10:31:13.476Z,73.00
2019-02-12T10:33:42.866Z,72.90
2019-02-12T10:36:12.257Z,71.70
2019-02-12T10:38:41.633Z,71.30
2019-02-12T10:41:11.026Z,71.60
2019-02-12T10:43:40.405Z,71.60
2019-02-12T10:46:10.027Z,70.70
2019-02-12T10:48:39.441Z,71.90
2019-02-12T10:51:08.884Z,71.40
2019-02-12T10:53:38.301Z,72.10
2019-02-12T10:56:07.940Z,72.10
2019-02-12T10:58:37.945Z,72.60
2019-02-12T11:01:07.572Z,73.00
2019-02-12T11:03:36.969Z,70.70
2019-02-12T11:06:06.429Z,72.40
2019-02-12T11:08:35.816Z,72.80
2019-02-12T11:11:05.138Z,73.80
2019-02-12T11:13:34.530Z,73.90
2019-02-12T11:16:06.752Z,74.00
2019-02-12T11:18:36.214Z,74.10
2019-02-12T11:21:11.660Z,72.90
2019-02-12T11:23:36.959Z,73.00
2019-02-12T11:26:06.326Z,72.90
2019-02-12T11:28:35.823Z,73.00
2019-02-12T11:31:05.276Z,71.00
2019-02-12T11:33:35.368Z,69.40
2019-02-12T11:36:05.626Z,69.60
2019-02-12T11:38:35.757Z,68.50
2019-02-12T11:41:06.228Z,68.90
2019-02-12T11:43:36.967Z,67.70
2019-02-12T11:46:06.426Z,67.40
2019-02-12T11:48:36.343Z,67.60
2019-02-12T11:51:05.993Z,67.70
2019-02-12T11:53:35.361Z,67.10
2019-02-12T11:56:04.765Z,66.80
2019-02-12T11:58:34.426Z,65.60
2019-02-12T12:01:07.010Z,66.10
2019-02-12T12:03:36.677Z,65.60
2019-02-12T12:06:06.301Z,65.50
2019-02-12T12:08:35.711Z,64.20
2019-02-12T12:11:05.437Z,64.70
2019-02-12T12:13:35.142Z,63.80
2019-02-12T12:16:04.556Z,63.00
2019-02-12T12:18:33.959Z,63.40
2019-02-12T12:21:03.325Z,63.00
2019-02-12T12:23:32.741Z,61.20
2019-02-12T12:26:02.101Z,59.60
2019-02-12T12:28:31.511Z,60.30
2019-02-12T12:31:00.900Z,59.70
2019-02-12T12:33:30.609Z,59.40
2019-02-12T12:35:59.997Z,58.60
2019-02-12T12:38:29.369Z,58.30
2019-02-12T12:40:58.775Z,58.50
2019-02-12T12:43:29.837Z,58.30
2019-02-12T12:46:00.035Z,57.60
2019-02-12T12:48:29.709Z,58.30
2019-02-12T12:50:59.123Z,58.20
2019-02-12T12:53:28.505Z,58.50
2019-02-12T12:55:57.915Z,59.40
2019-02-12T12:58:27.329Z,59.80
2019-02-12T13:00:56.734Z,58.70
2019-02-12T13:03:26.445Z,59.80
2019-02-12T13:05:55.841Z,60.40
2019-02-12T13:08:25.241Z,59.30
2019-02-12T13:10:54.622Z,59.80
2019-02-12T13:13:23.981Z,59.60
2019-02-12T13:15:53.425Z,59.60
2019-02-12T13:18:23.465Z,59.60
2019-02-12T13:20:53.187Z,59.90
2019-02-12T13:23:22.593Z,59.80
2019-02-12T13:25:51.942Z,58.50
2019-02-12T13:28:21.621Z,58.70
2019-02-12T13:30:51.008Z,57.50
2019-02-12T13:33:20.653Z,57.90
2019-02-12T13:35:50.017Z,58.30
2019-02-12T13:38:19.410Z,57.40
2019-02-12T13:40:48.773Z,57.00
2019-02-12T13:43:18.202Z,57.70
2019-02-12T13:45:47.841Z,57.60
2019-02-12T13:48:17.704Z,58.10
2019-02-12T13:50:47.105Z,58.40
2019-02-12T13:53:17.117Z,58.30
2019-02-12T13:55:46.829Z,57.90
2019-02-12T13:58:16.216Z,58.20
2019-02-12T14:00:45.885Z,58.50
2019-02-12T14:03:22.282Z,57.80
2019-02-12T14:05:46.377Z,57.60
2019-02-12T14:08:15.778Z,58.40
2019-02-12T14:10:45.442Z,59.50
2019-02-12T14:13:15.662Z,59.20
2019-02-12T14:15:45.076Z,60.20
2019-02-12T14:18:14.757Z,60.60
2019-02-12T14:20:44.180Z,60.80
2019-02-12T14:23:13.558Z,60.50
2019-02-12T14:25:42.937Z,60.60
2019-02-12T14:28:12.289Z,60.70
2019-02-12T14:30:41.917Z,60.60
2019-02-12T14:33:11.581Z,60.70
2019-02-12T14:35:41.076Z,60.60
2019-02-12T14:38:10.747Z,61.40
2019-02-12T14:40:40.413Z,61.30
2019-02-12T14:43:14.015Z,61.30
2019-02-12T14:45:41.107Z,61.40
2019-02-12T14:48:10.796Z,60.80
2019-02-12T14:50:40.153Z,62.00
2019-02-12T14:53:09.494Z,62.50
2019-02-12T14:55:38.861Z,62.70
2019-02-12T14:58:08.305Z,63.00
2019-02-12T15:00:37.870Z,62.20
2019-02-12T15:03:07.263Z,62.30
2019-02-12T15:05:36.675Z,61.80
2019-02-12T15:08:06.456Z,62.00
2019-02-12T15:10:36.063Z,63.00
2019-02-12T15:13:05.848Z,62.80
2019-02-12T15:15:35.208Z,63.00
2019-02-12T15:18:04.619Z,63.00
2019-02-12T15:20:34.049Z,63.00
2019-02-12T15:23:03.453Z,62.40
2019-02-12T15:25:32.835Z,62.30
2019-02-12T15:28:02.584Z,62.10
2019-02-12T15:30:31.985Z,62.80
2019-02-12T15:33:01.637Z,62.70
2019-02-12T15:35:31.290Z,62.70
2019-02-12T15:38:00.876Z,63.00
2019-02-12T15:40:30.243Z,63.20
2019-02-12T15:42:59.886Z,64.10
2019-02-12T15:45:29.308Z,64.10
2019-02-12T15:47:58.721Z,63.80
2019-02-12T15:50:28.365Z,64.00
2019-02-12T15:52:57.794Z,63.90
2019-02-12T15:55:27.183Z,64.90
2019-02-12T15:57:56.616Z,65.40
2019-02-12T16:00:25.981Z,65.00
2019-02-12T16:02:56.103Z,65.20
2019-02-12T16:05:26.436Z,65.70
2019-02-12T16:07:55.944Z,65.20
2019-02-12T16:10:25.355Z,65.20
2019-02-12T16:12:54.768Z,65.40
2019-02-12T16:15:24.831Z,65.60
2019-02-12T16:17:54.505Z,65.30
2019-02-12T16:20:24.159Z,65.50
2019-02-12T16:22:53.854Z,66.00
2019-02-12T16:25:23.278Z,66.20
2019-02-12T16:27:52.652Z,66.10
2019-02-12T16:30:22.347Z,66.00
2019-02-12T16:32:51.739Z,66.00
2019-02-12T16:35:21.401Z,65.80
2019-02-12T16:37:50.789Z,66.20
2019-02-12T16:40:20.557Z,66.20
2019-02-12T16:42:49.921Z,67.00
2019-02-12T16:45:22.973Z,67.30
2019-02-12T16:47:52.361Z,66.80
2019-02-12T16:50:22.022Z,67.20
2019-02-12T16:52:51.765Z,67.80
2019-02-12T16:55:21.171Z,67.40
2019-02-12T16:57:50.680Z,68.10
2019-02-12T17:00:20.608Z,67.60
2019-02-12T17:02:50.255Z,67.50
2019-02-12T17:05:19.777Z,67.80
2019-02-12T17:07:49.525Z,67.90
2019-02-12T17:10:18.996Z,67.90
2019-02-12T17:12:48.408Z,68.00
2019-02-12T17:15:17.782Z,68.00
2019-02-12T17:17:47.420Z,68.50
2019-02-12T17:20:18.105Z,68.10
2019-02-12T17:22:47.764Z,68.20
2019-02-12T17:25:17.172Z,68.90
2019-02-12T17:27:48.035Z,69.00
2019-02-12T17:30:17.705Z,69.10
2019-02-12T17:32:47.069Z,69.10
2019-02-12T17:35:16.760Z,69.70
2019-02-12T17:37:46.134Z,69.80
2019-02-12T17:40:15.586Z,69.80
2019-02-12T17:42:44.953Z,70.40
2019-02-12T17:45:14.712Z,70.20
2019-02-12T17:47:44.106Z,70.20
2019-02-12T17:50:13.710Z,70.70
2019-02-12T17:52:43.480Z,71.30
2019-02-12T17:55:12.906Z,71.30
2019-02-12T17:57:42.267Z,71.40
2019-02-12T18:00:15.681Z,71.10
2019-02-12T18:02:44.995Z,71.00
2019-02-12T18:05:14.405Z,71.80
2019-02-12T18:07:43.805Z,72.00
2019-02-12T18:10:13.221Z,72.20
2019-02-12T18:12:42.593Z,72.60
2019-02-12T18:15:12.373Z,72.00
2019-02-12T18:17:41.741Z,72.00
2019-02-12T18:20:12.888Z,72.40
2019-02-12T18:22:42.825Z,72.40
2019-02-12T18:25:12.251Z,72.30
2019-02-12T18:27:41.914Z,72.50
2019-02-12T18:30:13.177Z,72.00
2019-02-12T18:32:42.635Z,72.60
2019-02-12T18:35:12.092Z,72.80
2019-02-12T18:37:41.469Z,72.60
2019-02-12T18:40:11.486Z,73.10
2019-02-12T18:42:40.979Z,73.20
2019-02-12T18:45:12.481Z,73.00
2019-02-12T18:47:41.884Z,73.00
2019-02-12T18:50:12.011Z,72.40
2019-02-12T18:52:41.397Z,72.70
2019-02-12T18:55:12.158Z,73.10
2019-02-12T18:57:41.513Z,73.20
2019-02-12T19:00:15.788Z,72.90
2019-02-12T19:02:45.433Z,72.60
2019-02-12T19:05:14.825Z,73.20
2019-02-12T19:07:44.228Z,73.00
2019-02-12T19:10:14.049Z,72.40
2019-02-12T19:12:43.443Z,72.10
2019-02-12T19:15:14.647Z,72.80
2019-02-12T19:17:46.157Z,72.60
2019-02-12T19:20:15.825Z,72.50
2019-02-12T19:22:45.225Z,72.50
2019-02-12T19:25:14.873Z,72.20
2019-02-12T19:27:44.391Z,72.20
2019-02-12T19:30:16.147Z,72.30
2019-02-12T19:32:45.895Z,72.30
2019-02-12T19:35:15.293Z,72.20
2019-02-12T19:37:44.673Z,72.30
2019-02-12T19:40:14.073Z,72.70
2019-02-12T19:42:43.450Z,72.90
2019-02-12T19:45:12.933Z,73.00
2019-02-12T19:47:42.233Z,73.20
2019-02-12T19:50:11.671Z,73.10
2019-02-12T19:52:41.084Z,73.40
2019-02-12T19:55:10.470Z,73.50
2019-02-12T19:57:39.961Z,73.40
2019-02-12T20:00:12.613Z,73.90
2019-02-12T20:02:42.270Z,73.70
2019-02-12T20:05:11.961Z,73.80
2019-02-12T20:07:41.384Z,74.40
2019-02-12T20:10:11.232Z,74.60
2019-02-12T20:12:40.855Z,74.40
2019-02-12T20:15:11.328Z,74.80
2019-02-12T20:17:40.962Z,75.00
2019-02-12T20:20:11.438Z,75.10
2019-02-12T20:22:41.094Z,75.50
2019-02-12T20:25:10.586Z,75.50
2019-02-12T20:27:39.975Z,75.10
2019-02-12T20:30:11.702Z,75.20
2019-02-12T20:32:41.078Z,75.10
2019-02-12T20:35:11.730Z,75.00
2019-02-12T20:37:41.166Z,75.50
2019-02-12T20:40:11.747Z,75.80
2019-02-12T20:42:41.106Z,75.90
2019-02-12T20:45:12.594Z,76.30
2019-02-12T20:47:41.953Z,77.00
2019-02-12T20:50:12.702Z,78.80
2019-02-12T20:52:42.176Z,79.20
2019-02-12T20:55:11.797Z,79.50
2019-02-12T20:57:41.184Z,79.70
2019-02-12T21:00:13.451Z,79.50
2019-02-12T21:02:42.812Z,79.40
2019-02-12T21:05:13.188Z,79.70
2019-02-12T21:07:42.867Z,79.60
2019-02-12T21:10:14.297Z,79.70
2019-02-12T21:12:43.617Z,80.20
2019-02-12T21:15:15.224Z,80.20
2019-02-12T21:17:44.954Z,79.60
2019-02-12T21:20:14.431Z,79.60
2019-02-12T21:22:43.817Z,79.50
2019-02-12T21:25:13.216Z,79.50
2019-02-12T21:27:42.601Z,79.50
2019-02-12T21:30:14.125Z,79.10
2019-02-12T21:32:43.516Z,79.10
2019-02-12T21:35:13.442Z,78.80
2019-02-12T21:37:43.157Z,79.20
2019-02-12T21:40:15.254Z,79.30
2019-02-12T21:42:45.031Z,79.10
2019-02-12T21:45:14.441Z,79.30
2019-02-12T21:47:43.848Z,79.50
2019-02-12T21:50:13.618Z,79.90
2019-02-12T21:52:43.277Z,80.50
2019-02-12T21:55:12.733Z,80.40
2019-02-12T21:57:42.679Z,80.30
2019-02-12T22:00:14.065Z,79.70
2019-02-12T22:02:43.501Z,79.60
2019-02-12T22:05:13.419Z,79.60
2019-02-12T22:07:43.395Z,79.60
2019-02-12T22:10:14.948Z,80.00
2019-02-12T22:12:44.624Z,80.60
2019-02-12T22:15:14.296Z,81.20
2019-02-12T22:17:43.673Z,81.80
2019-02-12T22:20:14.705Z,82.10
2019-02-12T22:22:44.402Z,82.70
2019-02-12T22:25:14.038Z,82.10
2019-02-12T22:27:43.441Z,81.80
2019-02-12T22:30:17.653Z,82.30
2019-02-12T22:32:47.053Z,83.10
2019-02-12T22:35:16.422Z,83.60
2019-02-12T22:37:45.817Z,83.60
2019-02-12T22:40:15.364Z,83.50
2019-02-12T22:42:44.757Z,83.50
2019-02-12T22:45:15.905Z,84.50
2019-02-12T22:47:45.287Z,84.40
2019-02-12T22:50:15.446Z,84.60
2019-02-12T22:52:44.845Z,84.20
2019-02-12T22:55:14.227Z,84.70
2019-02-12T22:57:49.248Z,84.80
2019-02-12T23:00:24.584Z,85.00
2019-02-12T23:02:53.975Z,84.80
2019-02-12T23:05:23.917Z,85.50
2019-02-12T23:07:53.257Z,85.40
2019-02-12T23:10:22.633Z,85.70
2019-02-12T23:12:52.301Z,86.20
2019-02-12T23:15:22.226Z,85.80
2019-02-12T23:17:51.725Z,85.70
2019-02-12T23:20:21.083Z,85.90
2019-02-12T23:22:50.577Z,85.90
2019-02-12T23:25:19.971Z,86.00
2019-02-12T23:27:56.979Z,86.20
2019-02-12T23:30:20.388Z,85.50
2019-02-12T23:32:49.915Z,85.90
2019-02-12T23:35:19.286Z,85.80
2019-02-12T23:37:48.696Z,86.20
2019-02-12T23:40:18.358Z,86.80
2019-02-12T23:42:48.101Z,86.80
2019-02-12T23:45:17.777Z,86.70
2019-02-12T23:47:47.176Z,86.40
2019-02-12T23:50:16.650Z,86.80
2019-02-12T23:52:46.034Z,86.70
2019-02-12T23:55:15.705Z,86.70
2019-02-12T23:57:45.071Z,87.00
